BELLW 3.25 26.65700 -80.6298 0.000 0.000 20200125_1130 SFWMD BELLW current weather conditions

sailwx.info

Wind from 306 at 3 knots gusting 5

Air temperature 14.1° C
Dewpoint 13.8° C
Water temperature -7999.0° C

Last reported at 2020-Jan-25 12:30 UTC.
Time now 2020-Jan-25 13:24 UTC

Location: N 26°39' W 080°38'.
View on Google Maps.

See reports from other nearby stations

  
Tides and Currents Weather Stations Pressure Air Temp Water Temp Dewpoint Dewpoint Depression Visibility Wind Speed Wind Dir Waves Ship Positions
date/time (UTC)wind fromknots sea level pressurealtimeterstation pressurevisibilityair tempwater tempwave heightnotes
2020-Jan-25 12:30 306 3 gusting 5 14.1-7999.0
2020-Jan-25 12:15 290 3 gusting 3 13.8-7999.0
2020-Jan-25 12:00 273 3 gusting 3 13.8-7999.0
2020-Jan-25 11:45 264 2 gusting 3 14.1-7999.0
2020-Jan-25 11:30 289 3 gusting 4 14.3-7999.0
2020-Jan-25 11:15 279 3 gusting 5 14.1-7999.0
2020-Jan-25 11:00 269 2 gusting 3 14.4-7999.0
2020-Jan-25 10:45 232 2 gusting 3 14.5-7999.0
2020-Jan-25 10:30 232 2 gusting 3 14.8-7999.0
2020-Jan-25 10:15 238 2 gusting 3 15.0-7999.0
2020-Jan-25 10:00 266 2 gusting 3 15.1-7999.0
2020-Jan-25 09:45 286 2 gusting 3 15.4-7999.0
2020-Jan-25 09:30 282 2 gusting 3 15.5-7999.0
2020-Jan-25 09:15 288 1 gusting 2 15.8-7999.0
2020-Jan-25 09:00 287 1 gusting 2 15.6-7999.0
2020-Jan-25 08:45 225 1 gusting 2 15.8-7999.0
2020-Jan-25 08:30 210 1 gusting 2 16.4-7999.0
2020-Jan-25 08:15 255 0 gusting 1 16.6-7999.0
2020-Jan-25 08:00 245 0 gusting 1 17.0-7999.0
2020-Jan-25 07:45 236 0 gusting 1 17.4-7999.0
2020-Jan-25 07:30 187 1 gusting 2 17.6-7999.0
2020-Jan-25 07:15 180 2 gusting 3 17.8-7999.0
2020-Jan-25 07:00 170 3 gusting 4 18.0-7999.0
2020-Jan-25 06:45 166 3 gusting 4 18.1-7999.0
2020-Jan-25 06:30 166 3 gusting 4 18.3-7999.0
2020-Jan-25 06:15 173 3 gusting 5 18.4-7999.0
2020-Jan-25 06:00 185 3 gusting 5 18.5-7999.0
2020-Jan-25 05:45 183 3 gusting 5 18.6-7999.0
2020-Jan-25 05:30 171 4 gusting 7 18.6-7999.0
2020-Jan-25 05:15 172 5 gusting 7 18.6-7999.0
2020-Jan-25 05:00 170 4 gusting 7 18.6-7999.0
2020-Jan-25 04:45 174 4 gusting 7 18.7-7999.0
2020-Jan-25 04:30 164 5 gusting 7 18.6-7999.0
2020-Jan-25 04:15 181 5 gusting 7 18.4-7999.0
2020-Jan-25 03:45 197 4 gusting 6 18.8-7999.0
2020-Jan-25 03:30 200 6 gusting 8 18.9-7999.0
2020-Jan-25 03:15 207 7 gusting 10 19.1-7999.0
2020-Jan-25 03:00 222 9 gusting 11 19.2-7999.0
2020-Jan-25 02:45 231 9 gusting 12 19.2-7999.0
2020-Jan-25 02:30 219 8 gusting 11 19.1-7999.0
2020-Jan-25 02:15 222 6 gusting 10 19.1-7999.0
2020-Jan-25 02:00 215 6 gusting 8 18.8-7999.0
2020-Jan-25 01:30 171 3 gusting 9 18.1-7999.0
2020-Jan-25 01:15 116 2 gusting 3 18.2-7999.0
2020-Jan-25 01:00 077 2 gusting 3 18.3-7999.0
2020-Jan-25 00:45 077 2 gusting 3 18.7-7999.0
2020-Jan-25 00:30 058 2 gusting 3 18.9-7999.0
2020-Jan-25 00:15 057 2 gusting 3 19.1-7999.0
2020-Jan-25 00:00 079 2 gusting 2 19.2-7999.0
2020-Jan-24 23:45 111 3 gusting 4 19.4-7999.0
2020-Jan-24 23:30 104 3 gusting 4 19.6-7999.0
2020-Jan-24 23:00 117 5 gusting 7 21.5-7999.0
2020-Jan-24 22:45 127 5 gusting 8 22.2-7999.0
2020-Jan-24 22:30 094 4 gusting 6 22.7-7999.0
2020-Jan-24 22:15 090 4 gusting 7 23.0-7999.0
2020-Jan-24 22:00 087 5 gusting 7 23.5-7999.0
2020-Jan-24 21:45 092 4 gusting 6 24.0-7999.0
2020-Jan-24 21:30 109 4 gusting 6 23.8-7999.0
2020-Jan-24 21:15 086 4 gusting 6 23.9-7999.0
2020-Jan-24 21:00 105 3 gusting 6 24.1-7999.0
2020-Jan-24 20:45 095 4 gusting 6 23.9-7999.0
2020-Jan-24 20:30 102 4 gusting 7 24.0-7999.0
2020-Jan-24 20:15 112 4 gusting 7 23.9-7999.0
2020-Jan-24 19:30 119 3 gusting 6 23.9-7999.0
2020-Jan-24 19:15 105 4 gusting 6 23.8-7999.0
2020-Jan-24 15:15 116 4 gusting 6 20.8-7999.0
2020-Jan-24 14:30 073 3 gusting 5 18.6-7999.0
2020-Jan-24 14:15 069 3 gusting 5 18.7-7999.0
2020-Jan-24 13:45 066 4 gusting 6 18.1-7999.0
2020-Jan-24 13:30 068 4 gusting 5 18.0-7999.0
2020-Jan-24 13:15 061 3 gusting 5 17.7-7999.0
2020-Jan-24 12:45 057 4 gusting 5 17.3-7999.0
2020-Jan-24 12:30 061 3 gusting 4 17.2-7999.0
2020-Jan-24 12:15 057 3 gusting 4 17.2-7999.0
2020-Jan-24 12:00 074 3 gusting 5 17.4-7999.0
2020-Jan-24 11:45 074 4 gusting 6 17.4-7999.0
2020-Jan-24 11:30 052 4 gusting 5 17.4-7999.0
2020-Jan-24 11:15 046 4 gusting 7 17.4-7999.0
2020-Jan-24 11:00 057 4 gusting 5 17.4-7999.0
2020-Jan-24 10:45 045 4 gusting 6 17.5-7999.0
2020-Jan-24 10:30 056 4 gusting 6 17.6-7999.0
2020-Jan-24 10:15 068 1 gusting 1 17.7-7999.0
2020-Jan-24 10:00 069 1 gusting 2 17.7-7999.0
2020-Jan-24 09:45 098 2 gusting 3 17.7-7999.0
2020-Jan-24 09:30 143 2 gusting 3 17.7-7999.0
2020-Jan-24 09:15 127 2 gusting 4 17.6-7999.0
2020-Jan-24 09:00 091 1 gusting 2 17.5-7999.0
2020-Jan-24 08:45 079 2 gusting 3 17.6-7999.0
2020-Jan-24 08:30 082 2 gusting 3 17.6-7999.0
2020-Jan-24 08:15 110 3 gusting 5 17.6-7999.0
2020-Jan-24 08:00 104 3 gusting 5 17.6-7999.0
2020-Jan-24 07:45 113 4 gusting 5 17.6-7999.0
2020-Jan-24 07:30 115 4 gusting 6 17.6-7999.0
2020-Jan-24 07:15 123 3 gusting 6 17.7-7999.0
2020-Jan-24 07:00 083 2 gusting 4 17.7-7999.0
2020-Jan-24 06:30 099 2 gusting 3 17.8-7999.0
2020-Jan-24 06:15 103 1 gusting 2 17.8-7999.0
2020-Jan-24 06:00 159 0 gusting 2 17.8-7999.0
2020-Jan-24 05:45 173 3 gusting 5 17.8-7999.0
2020-Jan-24 05:30 204 4 gusting 5 17.8-7999.0
2020-Jan-24 05:15 190 3 gusting 5 17.8-7999.0
2020-Jan-24 05:00 126 1 gusting 3 17.7-7999.0
2020-Jan-24 04:45 211 1 gusting 3 17.6-7999.0
2020-Jan-24 04:30 237 3 gusting 4 17.5-7999.0
2020-Jan-24 04:15 253 3 gusting 4 17.5-7999.0
2020-Jan-24 04:00 235 1 gusting 2 17.5-7999.0
2020-Jan-24 03:45 171 1 gusting 3 17.6-7999.0
2020-Jan-24 03:30 139 0 gusting 1 17.4-7999.0
2020-Jan-24 03:15 117 0 gusting 1 17.3-7999.0
2020-Jan-24 03:00 166 0 gusting 1 17.5-7999.0
2020-Jan-24 02:45 188 1 gusting 2 17.3-7999.0
2020-Jan-24 02:30 169 1 gusting 3 16.9-7999.0
2020-Jan-24 02:15 151 1 gusting 3 16.4-7999.0
2020-Jan-24 02:00 136 1 gusting 2 16.9-7999.0
2020-Jan-24 01:45 101 1 gusting 2 17.2-7999.0
2020-Jan-24 01:30 132 2 gusting 4 17.6-7999.0
2020-Jan-24 01:15 126 2 gusting 4 17.4-7999.0
2020-Jan-24 01:00 094 1 gusting 2 17.4-7999.0
2020-Jan-24 00:45 029 2 gusting 2 17.6-7999.0
2020-Jan-24 00:30 128 0 gusting 2 18.4-7999.0
2020-Jan-24 00:15 190 1 gusting 3 18.8-7999.0
2020-Jan-24 00:00 201 3 gusting 6 19.0-7999.0
2020-Jan-23 23:45 189 4 gusting 7 19.4-7999.0
2020-Jan-23 23:30 191 6 gusting 9 19.7-7999.0
2020-Jan-23 23:15 187 5 gusting 7 20.6-7999.0
2020-Jan-23 23:00 098 1 gusting 5 20.3-7999.0
2020-Jan-23 22:45 159 1 gusting 3 20.9-7999.0
2020-Jan-23 22:30 147 1 gusting 3 21.7-7999.0
2020-Jan-23 22:15 097 3 gusting 5 21.1-7999.0
2020-Jan-23 22:00 130 3 gusting 6 22.2-7999.0
2020-Jan-23 21:45 085 4 gusting 6 22.9-7999.0
2020-Jan-23 21:30 100 7 gusting 11 22.8-7999.0
2020-Jan-23 21:15 092 7 gusting 11 23.0-7999.0
2020-Jan-23 21:00 098 7 gusting 11 23.1-7999.0
2020-Jan-23 20:45 096 7 gusting 12 23.4-7999.0
2020-Jan-23 20:30 103 9 gusting 11 22.9-7999.0
2020-Jan-23 20:15 096 9 gusting 12 23.2-7999.0
2020-Jan-23 20:00 098 8 gusting 12 23.0-7999.0
2020-Jan-23 19:45 107 8 gusting 12 22.5-7999.0
2020-Jan-23 19:30 112 10 gusting 14 22.8-7999.0
2020-Jan-23 19:15 168 3 gusting 9 23.5-7999.0
2020-Jan-23 19:00 201 2 gusting 6 23.0-7999.0
2020-Jan-23 18:45 163 3 gusting 6 22.4-7999.0
2020-Jan-23 18:30 093 4 gusting 8 22.0-7999.0
2020-Jan-23 18:15 034 6 gusting 9 21.6-7999.0
2020-Jan-23 18:00 067 6 gusting 10 21.4-7999.0
2020-Jan-23 17:45 211 6 gusting 10 20.4-7999.0
2020-Jan-23 17:30 154 6 gusting 9 20.2-7999.0
2020-Jan-23 17:15 247 6 gusting 9 19.6-7999.0
2020-Jan-23 17:00 259 6 gusting 10 19.6-7999.0
2020-Jan-23 16:45 312 6 gusting 9 19.2-7999.0
2020-Jan-23 16:30 317 6 gusting 9 18.8-7999.0
2020-Jan-23 16:15 216 6 gusting 9 18.5-7999.0
2020-Jan-23 16:00 270 5 gusting 8 18.0-7999.0
2020-Jan-23 15:45 292 6 gusting 9 18.1-7999.0
2020-Jan-23 15:30 310 5 gusting 8 17.3-7999.0
2020-Jan-23 15:15 225 5 gusting 7 17.1-7999.0
2020-Jan-23 14:45 192 6 gusting 9 16.3-7999.0
2020-Jan-23 14:30 254 6 gusting 9 15.8-7999.0
2020-Jan-23 14:15 270 5 gusting 8 15.3-7999.0
2020-Jan-23 14:00 318 5 gusting 8 14.4-7999.0
2020-Jan-23 13:45 290 5 gusting 7 13.9-7999.0
2020-Jan-23 13:30 311 4 gusting 6 13.0-7999.0
2020-Jan-23 13:15 269 4 gusting 7 12.1-7999.0